sensor_id;sensor_type;location;lat;lon;timestamp;P1;durP1;ratioP1;P2;durP2;ratioP2
79570;SDS011;69034;49.444;7.758;2023-05-15T00:03:27;3.10;;;1.50;;
79570;SDS011;69034;49.444;7.758;2023-05-15T00:07:28;2.40;;;1.10;;
79570;SDS011;69034;49.444;7.758;2023-05-15T00:11:29;3.58;;;1.42;;
79570;SDS011;69034;49.444;7.758;2023-05-15T00:15:29;2.40;;;1.10;;
79570;SDS011;69034;49.444;7.758;2023-05-15T00:19:30;3.45;;;1.85;;
79570;SDS011;69034;49.444;7.758;2023-05-15T00:23:31;5.72;;;1.35;;
79570;SDS011;69034;49.444;7.758;2023-05-15T00:27:31;2.83;;;1.23;;
79570;SDS011;69034;49.444;7.758;2023-05-15T00:31:32;2.88;;;1.25;;
79570;SDS011;69034;49.444;7.758;2023-05-15T00:35:33;5.38;;;2.00;;
79570;SDS011;69034;49.444;7.758;2023-05-15T00:39:33;4.65;;;1.23;;
79570;SDS011;69034;49.444;7.758;2023-05-15T00:43:35;2.97;;;1.40;;
79570;SDS011;69034;49.444;7.758;2023-05-15T00:47:39;5.32;;;1.15;;
79570;SDS011;69034;49.444;7.758;2023-05-15T00:51:41;3.15;;;1.30;;
79570;SDS011;69034;49.444;7.758;2023-05-15T00:55:45;3.10;;;1.35;;
79570;SDS011;69034;49.444;7.758;2023-05-15T00:59:46;4.13;;;1.70;;
79570;SDS011;69034;49.444;7.758;2023-05-15T01:03:48;2.97;;;1.33;;
79570;SDS011;69034;49.444;7.758;2023-05-15T01:08:11;3.42;;;1.20;;
79570;SDS011;69034;49.444;7.758;2023-05-15T01:12:16;2.75;;;1.10;;
79570;SDS011;69034;49.444;7.758;2023-05-15T01:16:19;2.60;;;1.15;;
79570;SDS011;69034;49.444;7.758;2023-05-15T01:20:21;2.47;;;1.10;;
79570;SDS011;69034;49.444;7.758;2023-05-15T01:33:27;3.05;;;1.40;;
79570;SDS011;69034;49.444;7.758;2023-05-15T01:37:33;5.60;;;1.52;;
79570;SDS011;69034;49.444;7.758;2023-05-15T01:46:19;5.25;;;1.40;;
79570;SDS011;69034;49.444;7.758;2023-05-15T01:50:22;5.43;;;1.55;;
79570;SDS011;69034;49.444;7.758;2023-05-15T01:54:24;3.88;;;1.50;;
79570;SDS011;69034;49.444;7.758;2023-05-15T01:58:26;3.10;;;1.17;;
79570;SDS011;69034;49.444;7.758;2023-05-15T02:02:27;3.63;;;1.30;;
79570;SDS011;69034;49.444;7.758;2023-05-15T02:06:29;2.17;;;0.88;;
79570;SDS011;69034;49.444;7.758;2023-05-15T02:10:31;5.88;;;1.42;;
79570;SDS011;69034;49.444;7.758;2023-05-15T02:14:32;2.45;;;1.20;;
79570;SDS011;69034;49.444;7.758;2023-05-15T02:18:34;5.03;;;1.42;;
79570;SDS011;69034;49.444;7.758;2023-05-15T02:22:37;6.22;;;1.42;;
79570;SDS011;69034;49.444;7.758;2023-05-15T02:26:42;3.53;;;1.25;;
79570;SDS011;69034;49.444;7.758;2023-05-15T02:30:57;2.83;;;1.05;;
79570;SDS011;69034;49.444;7.758;2023-05-15T02:39:29;2.70;;;1.10;;
79570;SDS011;69034;49.444;7.758;2023-05-15T02:43:32;3.10;;;1.33;;
79570;SDS011;69034;49.444;7.758;2023-05-15T02:47:36;4.00;;;1.10;;
79570;SDS011;69034;49.444;7.758;2023-05-15T02:51:38;3.05;;;1.48;;
79570;SDS011;69034;49.444;7.758;2023-05-15T02:55:39;4.78;;;2.00;;
79570;SDS011;69034;49.444;7.758;2023-05-15T02:59:40;2.85;;;1.17;;
79570;SDS011;69034;49.444;7.758;2023-05-15T03:03:41;2.72;;;1.17;;
79570;SDS011;69034;49.444;7.758;2023-05-15T03:07:41;3.53;;;1.35;;
79570;SDS011;69034;49.444;7.758;2023-05-15T03:11:42;2.88;;;1.30;;
79570;SDS011;69034;49.444;7.758;2023-05-15T03:15:43;2.85;;;1.10;;
79570;SDS011;69034;49.444;7.758;2023-05-15T03:19:46;4.72;;;1.50;;
79570;SDS011;69034;49.444;7.758;2023-05-15T03:23:47;2.30;;;1.08;;
79570;SDS011;69034;49.444;7.758;2023-05-15T03:27:48;2.92;;;1.20;;
79570;SDS011;69034;49.444;7.758;2023-05-15T03:31:48;4.40;;;2.10;;
79570;SDS011;69034;49.444;7.758;2023-05-15T03:35:49;3.78;;;1.80;;
79570;SDS011;69034;49.444;7.758;2023-05-15T03:39:51;3.17;;;1.42;;
79570;SDS011;69034;49.444;7.758;2023-05-15T03:43:52;3.08;;;1.55;;
79570;SDS011;69034;49.444;7.758;2023-05-15T03:47:52;2.80;;;1.40;;
79570;SDS011;69034;49.444;7.758;2023-05-15T03:51:53;3.08;;;1.25;;
79570;SDS011;69034;49.444;7.758;2023-05-15T03:55:55;4.28;;;1.20;;
79570;SDS011;69034;49.444;7.758;2023-05-15T03:59:56;2.78;;;1.05;;
79570;SDS011;69034;49.444;7.758;2023-05-15T04:03:56;3.42;;;1.45;;
79570;SDS011;69034;49.444;7.758;2023-05-15T04:07:57;2.97;;;1.17;;
79570;SDS011;69034;49.444;7.758;2023-05-15T04:11:58;3.00;;;1.60;;
79570;SDS011;69034;49.444;7.758;2023-05-15T04:15:58;2.75;;;1.48;;
79570;SDS011;69034;49.444;7.758;2023-05-15T04:20:00;3.20;;;1.73;;
79570;SDS011;69034;49.444;7.758;2023-05-15T04:24:00;3.60;;;1.80;;
79570;SDS011;69034;49.444;7.758;2023-05-15T04:28:01;3.75;;;1.30;;
79570;SDS011;69034;49.444;7.758;2023-05-15T04:32:03;7.30;;;2.33;;
79570;SDS011;69034;49.444;7.758;2023-05-15T04:36:04;3.15;;;1.35;;
79570;SDS011;69034;49.444;7.758;2023-05-15T04:40:06;3.88;;;1.58;;
79570;SDS011;69034;49.444;7.758;2023-05-15T04:44:08;3.90;;;1.50;;
79570;SDS011;69034;49.444;7.758;2023-05-15T04:48:08;3.22;;;1.20;;
79570;SDS011;69034;49.444;7.758;2023-05-15T04:52:10;3.72;;;1.27;;
79570;SDS011;69034;49.444;7.758;2023-05-15T04:56:11;3.03;;;1.40;;
79570;SDS011;69034;49.444;7.758;2023-05-15T05:00:11;2.63;;;1.42;;
79570;SDS011;69034;49.444;7.758;2023-05-15T05:04:13;3.15;;;1.88;;
79570;SDS011;69034;49.444;7.758;2023-05-15T05:08:14;2.88;;;1.55;;
79570;SDS011;69034;49.444;7.758;2023-05-15T05:12:14;4.60;;;1.27;;
79570;SDS011;69034;49.444;7.758;2023-05-15T05:16:15;2.80;;;1.30;;
79570;SDS011;69034;49.444;7.758;2023-05-15T05:20:15;4.57;;;2.40;;
79570;SDS011;69034;49.444;7.758;2023-05-15T05:24:16;4.93;;;2.35;;
79570;SDS011;69034;49.444;7.758;2023-05-15T05:28:17;2.60;;;1.10;;
79570;SDS011;69034;49.444;7.758;2023-05-15T05:32:20;3.33;;;1.70;;
79570;SDS011;69034;49.444;7.758;2023-05-15T05:36:20;7.18;;;2.67;;
79570;SDS011;69034;49.444;7.758;2023-05-15T05:40:21;3.17;;;1.60;;
79570;SDS011;69034;49.444;7.758;2023-05-15T05:44:21;4.43;;;1.55;;
79570;SDS011;69034;49.444;7.758;2023-05-15T05:48:23;3.70;;;1.38;;
79570;SDS011;69034;49.444;7.758;2023-05-15T05:52:25;4.97;;;2.03;;
79570;SDS011;69034;49.444;7.758;2023-05-15T05:56:28;3.25;;;1.40;;
79570;SDS011;69034;49.444;7.758;2023-05-15T06:00:28;3.97;;;1.80;;
79570;SDS011;69034;49.444;7.758;2023-05-15T06:04:32;6.30;;;2.47;;
79570;SDS011;69034;49.444;7.758;2023-05-15T06:08:35;5.38;;;2.20;;
79570;SDS011;69034;49.444;7.758;2023-05-15T06:12:36;3.45;;;1.67;;
79570;SDS011;69034;49.444;7.758;2023-05-15T06:16:39;6.28;;;2.17;;
79570;SDS011;69034;49.444;7.758;2023-05-15T06:20:40;5.70;;;2.22;;
79570;SDS011;69034;49.444;7.758;2023-05-15T06:24:41;4.68;;;2.30;;
79570;SDS011;69034;49.444;7.758;2023-05-15T06:28:42;4.57;;;2.05;;
79570;SDS011;69034;49.444;7.758;2023-05-15T06:32:43;5.10;;;2.45;;
79570;SDS011;69034;49.444;7.758;2023-05-15T06:36:43;5.43;;;2.80;;
79570;SDS011;69034;49.444;7.758;2023-05-15T06:40:44;4.90;;;1.98;;
79570;SDS011;69034;49.444;7.758;2023-05-15T06:44:45;4.90;;;2.58;;
79570;SDS011;69034;49.444;7.758;2023-05-15T06:48:46;3.58;;;1.80;;
79570;SDS011;69034;49.444;7.758;2023-05-15T06:52:47;4.22;;;2.53;;
79570;SDS011;69034;49.444;7.758;2023-05-15T06:56:47;5.25;;;2.25;;
79570;SDS011;69034;49.444;7.758;2023-05-15T07:00:49;3.58;;;1.95;;
79570;SDS011;69034;49.444;7.758;2023-05-15T07:04:51;4.35;;;2.40;;
79570;SDS011;69034;49.444;7.758;2023-05-15T07:08:52;4.15;;;2.15;;
79570;SDS011;69034;49.444;7.758;2023-05-15T07:12:53;3.83;;;2.15;;
79570;SDS011;69034;49.444;7.758;2023-05-15T07:16:53;3.90;;;2.35;;
79570;SDS011;69034;49.444;7.758;2023-05-15T07:20:54;4.13;;;2.42;;
79570;SDS011;69034;49.444;7.758;2023-05-15T07:24:55;4.03;;;2.47;;
79570;SDS011;69034;49.444;7.758;2023-05-15T07:28:55;4.72;;;2.20;;
79570;SDS011;69034;49.444;7.758;2023-05-15T07:32:56;3.63;;;1.75;;
79570;SDS011;69034;49.444;7.758;2023-05-15T07:36:57;6.50;;;2.22;;
79570;SDS011;69034;49.444;7.758;2023-05-15T07:40:57;2.97;;;1.63;;
79570;SDS011;69034;49.444;7.758;2023-05-15T07:44:58;5.05;;;1.83;;
79570;SDS011;69034;49.444;7.758;2023-05-15T07:48:58;4.38;;;2.40;;
79570;SDS011;69034;49.444;7.758;2023-05-15T07:52:59;4.03;;;2.05;;
79570;SDS011;69034;49.444;7.758;2023-05-15T07:57:03;3.40;;;1.77;;
79570;SDS011;69034;49.444;7.758;2023-05-15T08:01:04;3.65;;;1.85;;
79570;SDS011;69034;49.444;7.758;2023-05-15T08:05:05;6.05;;;2.47;;
79570;SDS011;69034;49.444;7.758;2023-05-15T08:09:06;3.60;;;1.90;;
79570;SDS011;69034;49.444;7.758;2023-05-15T08:13:07;5.25;;;1.85;;
79570;SDS011;69034;49.444;7.758;2023-05-15T08:17:07;3.72;;;1.80;;
79570;SDS011;69034;49.444;7.758;2023-05-15T08:21:08;5.38;;;2.05;;
79570;SDS011;69034;49.444;7.758;2023-05-15T08:25:08;3.70;;;2.00;;
79570;SDS011;69034;49.444;7.758;2023-05-15T08:29:09;4.40;;;2.30;;
79570;SDS011;69034;49.444;7.758;2023-05-15T08:33:10;3.65;;;1.80;;
79570;SDS011;69034;49.444;7.758;2023-05-15T08:37:11;5.20;;;2.78;;
79570;SDS011;69034;49.444;7.758;2023-05-15T08:41:18;4.25;;;2.30;;
79570;SDS011;69034;49.444;7.758;2023-05-15T08:45:27;4.78;;;3.40;;
79570;SDS011;69034;49.444;7.758;2023-05-15T08:53:53;4.00;;;2.25;;
79570;SDS011;69034;49.444;7.758;2023-05-15T08:57:53;4.63;;;2.50;;
79570;SDS011;69034;49.444;7.758;2023-05-15T09:01:54;3.25;;;2.00;;
79570;SDS011;69034;49.444;7.758;2023-05-15T09:05:55;3.90;;;2.75;;
79570;SDS011;69034;49.444;7.758;2023-05-15T09:09:58;5.35;;;2.42;;
79570;SDS011;69034;49.444;7.758;2023-05-15T09:14:00;3.88;;;2.28;;
79570;SDS011;69034;49.444;7.758;2023-05-15T09:18:00;4.97;;;2.40;;
79570;SDS011;69034;49.444;7.758;2023-05-15T09:22:19;4.60;;;3.00;;
79570;SDS011;69034;49.444;7.758;2023-05-15T09:26:23;4.55;;;2.40;;
79570;SDS011;69034;49.444;7.758;2023-05-15T09:30:25;4.35;;;2.72;;
79570;SDS011;69034;49.444;7.758;2023-05-15T09:34:30;4.40;;;2.30;;
79570;SDS011;69034;49.444;7.758;2023-05-15T09:42:33;4.10;;;2.30;;
79570;SDS011;69034;49.444;7.758;2023-05-15T09:46:35;4.53;;;2.17;;
79570;SDS011;69034;49.444;7.758;2023-05-15T09:50:37;4.38;;;2.33;;
79570;SDS011;69034;49.444;7.758;2023-05-15T09:54:38;4.85;;;2.50;;
79570;SDS011;69034;49.444;7.758;2023-05-15T09:58:50;7.20;;;2.38;;
79570;SDS011;69034;49.444;7.758;2023-05-15T10:02:52;5.13;;;2.20;;
79570;SDS011;69034;49.444;7.758;2023-05-15T10:06:57;3.80;;;2.30;;
79570;SDS011;69034;49.444;7.758;2023-05-15T10:10:58;4.78;;;2.25;;
79570;SDS011;69034;49.444;7.758;2023-05-15T10:15:02;3.47;;;2.10;;
79570;SDS011;69034;49.444;7.758;2023-05-15T10:19:08;5.43;;;2.28;;
79570;SDS011;69034;49.444;7.758;2023-05-15T10:23:10;6.85;;;3.10;;
79570;SDS011;69034;49.444;7.758;2023-05-15T10:27:13;5.20;;;3.25;;
79570;SDS011;69034;49.444;7.758;2023-05-15T10:31:15;5.05;;;3.05;;
79570;SDS011;69034;49.444;7.758;2023-05-15T10:35:17;4.38;;;2.75;;
79570;SDS011;69034;49.444;7.758;2023-05-15T10:39:18;7.53;;;3.28;;
79570;SDS011;69034;49.444;7.758;2023-05-15T10:43:20;5.13;;;3.28;;
79570;SDS011;69034;49.444;7.758;2023-05-15T10:47:21;4.20;;;2.58;;
79570;SDS011;69034;49.444;7.758;2023-05-15T10:51:25;4.13;;;3.08;;
79570;SDS011;69034;49.444;7.758;2023-05-15T10:55:27;8.07;;;2.88;;
79570;SDS011;69034;49.444;7.758;2023-05-15T10:59:31;4.93;;;2.88;;
79570;SDS011;69034;49.444;7.758;2023-05-15T11:03:35;5.97;;;3.58;;
79570;SDS011;69034;49.444;7.758;2023-05-15T11:07:37;6.07;;;3.72;;
79570;SDS011;69034;49.444;7.758;2023-05-15T11:11:52;5.13;;;3.38;;
79570;SDS011;69034;49.444;7.758;2023-05-15T11:15:54;5.43;;;3.92;;
79570;SDS011;69034;49.444;7.758;2023-05-15T11:19:56;7.15;;;4.15;;
79570;SDS011;69034;49.444;7.758;2023-05-15T11:24:02;5.00;;;3.25;;
79570;SDS011;69034;49.444;7.758;2023-05-15T11:28:04;4.70;;;3.10;;
79570;SDS011;69034;49.444;7.758;2023-05-15T11:32:29;9.23;;;5.25;;
79570;SDS011;69034;49.444;7.758;2023-05-15T11:36:46;8.40;;;5.75;;
79570;SDS011;69034;49.444;7.758;2023-05-15T11:40:47;8.05;;;5.65;;
79570;SDS011;69034;49.444;7.758;2023-05-15T11:45:01;7.72;;;4.72;;
79570;SDS011;69034;49.444;7.758;2023-05-15T11:49:03;9.32;;;4.10;;
79570;SDS011;69034;49.444;7.758;2023-05-15T11:53:05;5.70;;;3.72;;
79570;SDS011;69034;49.444;7.758;2023-05-15T11:57:07;4.85;;;2.58;;
79570;SDS011;69034;49.444;7.758;2023-05-15T12:01:09;4.03;;;2.35;;
79570;SDS011;69034;49.444;7.758;2023-05-15T12:05:10;5.38;;;2.58;;
79570;SDS011;69034;49.444;7.758;2023-05-15T12:09:17;3.47;;;2.00;;
79570;SDS011;69034;49.444;7.758;2023-05-15T12:13:20;4.15;;;2.80;;
79570;SDS011;69034;49.444;7.758;2023-05-15T12:17:21;4.88;;;1.65;;
79570;SDS011;69034;49.444;7.758;2023-05-15T12:21:22;3.35;;;1.98;;
79570;SDS011;69034;49.444;7.758;2023-05-15T12:25:25;3.50;;;2.10;;
79570;SDS011;69034;49.444;7.758;2023-05-15T12:29:26;3.50;;;1.98;;
79570;SDS011;69034;49.444;7.758;2023-05-15T12:33:28;3.78;;;2.03;;
79570;SDS011;69034;49.444;7.758;2023-05-15T12:37:30;4.03;;;2.10;;
79570;SDS011;69034;49.444;7.758;2023-05-15T12:41:32;3.47;;;2.00;;
79570;SDS011;69034;49.444;7.758;2023-05-15T12:45:38;4.05;;;2.15;;
79570;SDS011;69034;49.444;7.758;2023-05-15T12:49:40;3.00;;;1.80;;
79570;SDS011;69034;49.444;7.758;2023-05-15T12:53:41;3.45;;;2.10;;
79570;SDS011;69034;49.444;7.758;2023-05-15T12:57:42;3.33;;;1.98;;
79570;SDS011;69034;49.444;7.758;2023-05-15T13:01:43;4.82;;;2.42;;
79570;SDS011;69034;49.444;7.758;2023-05-15T13:05:45;4.35;;;2.90;;
79570;SDS011;69034;49.444;7.758;2023-05-15T13:09:49;4.47;;;3.17;;
79570;SDS011;69034;49.444;7.758;2023-05-15T13:14:06;3.38;;;1.85;;
79570;SDS011;69034;49.444;7.758;2023-05-15T13:18:09;6.07;;;2.55;;
79570;SDS011;69034;49.444;7.758;2023-05-15T13:22:12;4.68;;;2.63;;
79570;SDS011;69034;49.444;7.758;2023-05-15T13:26:12;5.15;;;2.85;;
79570;SDS011;69034;49.444;7.758;2023-05-15T13:30:16;5.32;;;3.22;;
79570;SDS011;69034;49.444;7.758;2023-05-15T13:34:17;4.65;;;3.17;;
79570;SDS011;69034;49.444;7.758;2023-05-15T13:38:18;4.97;;;3.35;;
79570;SDS011;69034;49.444;7.758;2023-05-15T13:42:18;6.22;;;4.22;;
79570;SDS011;69034;49.444;7.758;2023-05-15T13:46:19;6.32;;;3.85;;
79570;SDS011;69034;49.444;7.758;2023-05-15T13:50:20;8.18;;;3.72;;
79570;SDS011;69034;49.444;7.758;2023-05-15T13:54:20;7.40;;;4.55;;
79570;SDS011;69034;49.444;7.758;2023-05-15T13:58:21;7.53;;;4.60;;
79570;SDS011;69034;49.444;7.758;2023-05-15T14:02:25;10.18;;;5.28;;
79570;SDS011;69034;49.444;7.758;2023-05-15T14:06:25;6.90;;;4.90;;
79570;SDS011;69034;49.444;7.758;2023-05-15T14:10:26;8.23;;;4.90;;
79570;SDS011;69034;49.444;7.758;2023-05-15T14:14:27;6.00;;;3.92;;
79570;SDS011;69034;49.444;7.758;2023-05-15T14:18:28;6.38;;;3.53;;
79570;SDS011;69034;49.444;7.758;2023-05-15T14:22:28;7.22;;;4.57;;
79570;SDS011;69034;49.444;7.758;2023-05-15T14:26:29;9.00;;;4.25;;
79570;SDS011;69034;49.444;7.758;2023-05-15T14:30:30;7.07;;;4.32;;
79570;SDS011;69034;49.444;7.758;2023-05-15T14:34:30;5.30;;;3.67;;
79570;SDS011;69034;49.444;7.758;2023-05-15T14:38:31;8.35;;;4.22;;
79570;SDS011;69034;49.444;7.758;2023-05-15T14:42:32;5.82;;;3.60;;
79570;SDS011;69034;49.444;7.758;2023-05-15T14:46:32;5.97;;;3.35;;
79570;SDS011;69034;49.444;7.758;2023-05-15T14:50:35;6.50;;;3.65;;
79570;SDS011;69034;49.444;7.758;2023-05-15T14:54:38;6.18;;;3.38;;
79570;SDS011;69034;49.444;7.758;2023-05-15T14:58:39;5.85;;;3.58;;
79570;SDS011;69034;49.444;7.758;2023-05-15T15:02:39;7.03;;;3.03;;
79570;SDS011;69034;49.444;7.758;2023-05-15T15:06:48;4.95;;;2.80;;
79570;SDS011;69034;49.444;7.758;2023-05-15T15:10:48;6.68;;;3.20;;
79570;SDS011;69034;49.444;7.758;2023-05-15T15:14:49;8.32;;;2.97;;
79570;SDS011;69034;49.444;7.758;2023-05-15T15:18:50;5.30;;;2.92;;
79570;SDS011;69034;49.444;7.758;2023-05-15T15:22:51;5.60;;;2.83;;
79570;SDS011;69034;49.444;7.758;2023-05-15T15:26:52;6.55;;;3.13;;
79570;SDS011;69034;49.444;7.758;2023-05-15T15:30:52;5.50;;;2.97;;
79570;SDS011;69034;49.444;7.758;2023-05-15T15:34:53;6.30;;;3.28;;
79570;SDS011;69034;49.444;7.758;2023-05-15T15:38:56;5.40;;;2.80;;
79570;SDS011;69034;49.444;7.758;2023-05-15T15:42:56;6.65;;;3.13;;
79570;SDS011;69034;49.444;7.758;2023-05-15T15:46:57;4.80;;;2.67;;
79570;SDS011;69034;49.444;7.758;2023-05-15T15:50:58;4.80;;;2.60;;
79570;SDS011;69034;49.444;7.758;2023-05-15T15:54:58;5.05;;;2.80;;
79570;SDS011;69034;49.444;7.758;2023-05-15T15:58:59;7.68;;;2.95;;
79570;SDS011;69034;49.444;7.758;2023-05-15T16:02:59;6.43;;;3.28;;
79570;SDS011;69034;49.444;7.758;2023-05-15T16:07:02;6.40;;;2.50;;
79570;SDS011;69034;49.444;7.758;2023-05-15T16:11:04;7.18;;;3.17;;
79570;SDS011;69034;49.444;7.758;2023-05-15T16:15:05;7.70;;;3.70;;
79570;SDS011;69034;49.444;7.758;2023-05-15T16:19:07;11.57;;;5.82;;
79570;SDS011;69034;49.444;7.758;2023-05-15T16:23:08;15.82;;;6.18;;
79570;SDS011;69034;49.444;7.758;2023-05-15T16:27:10;7.47;;;4.75;;
79570;SDS011;69034;49.444;7.758;2023-05-15T16:31:11;9.98;;;4.50;;
79570;SDS011;69034;49.444;7.758;2023-05-15T16:35:12;5.68;;;3.42;;
79570;SDS011;69034;49.444;7.758;2023-05-15T16:39:13;5.78;;;3.67;;
79570;SDS011;69034;49.444;7.758;2023-05-15T16:43:14;5.25;;;3.20;;
79570;SDS011;69034;49.444;7.758;2023-05-15T16:47:15;4.95;;;3.45;;
79570;SDS011;69034;49.444;7.758;2023-05-15T16:51:15;6.30;;;3.08;;
79570;SDS011;69034;49.444;7.758;2023-05-15T16:55:16;5.30;;;3.17;;
79570;SDS011;69034;49.444;7.758;2023-05-15T16:59:18;5.22;;;3.20;;
79570;SDS011;69034;49.444;7.758;2023-05-15T17:03:19;5.20;;;3.30;;
79570;SDS011;69034;49.444;7.758;2023-05-15T17:07:20;4.80;;;2.83;;
79570;SDS011;69034;49.444;7.758;2023-05-15T17:11:21;7.70;;;3.78;;
79570;SDS011;69034;49.444;7.758;2023-05-15T17:15:22;5.18;;;3.10;;
79570;SDS011;69034;49.444;7.758;2023-05-15T17:19:23;5.43;;;3.25;;
79570;SDS011;69034;49.444;7.758;2023-05-15T17:23:23;7.22;;;3.30;;
79570;SDS011;69034;49.444;7.758;2023-05-15T17:27:24;7.85;;;3.95;;
79570;SDS011;69034;49.444;7.758;2023-05-15T17:31:25;5.35;;;2.80;;
79570;SDS011;69034;49.444;7.758;2023-05-15T17:35:28;6.53;;;3.67;;
79570;SDS011;69034;49.444;7.758;2023-05-15T17:39:29;6.72;;;3.85;;
79570;SDS011;69034;49.444;7.758;2023-05-15T17:43:32;5.10;;;2.78;;
79570;SDS011;69034;49.444;7.758;2023-05-15T17:47:34;8.43;;;4.68;;
79570;SDS011;69034;49.444;7.758;2023-05-15T17:51:37;5.88;;;3.28;;
79570;SDS011;69034;49.444;7.758;2023-05-15T17:55:38;7.65;;;3.95;;
79570;SDS011;69034;49.444;7.758;2023-05-15T17:59:39;5.72;;;3.55;;
79570;SDS011;69034;49.444;7.758;2023-05-15T18:03:39;8.13;;;3.00;;
79570;SDS011;69034;49.444;7.758;2023-05-15T18:07:40;8.25;;;4.57;;
79570;SDS011;69034;49.444;7.758;2023-05-15T18:11:41;5.75;;;3.28;;
79570;SDS011;69034;49.444;7.758;2023-05-15T18:15:42;5.45;;;2.90;;
79570;SDS011;69034;49.444;7.758;2023-05-15T18:19:42;5.13;;;2.83;;
79570;SDS011;69034;49.444;7.758;2023-05-15T18:23:43;7.10;;;2.90;;
79570;SDS011;69034;49.444;7.758;2023-05-15T18:27:45;7.10;;;4.47;;
79570;SDS011;69034;49.444;7.758;2023-05-15T18:31:46;6.68;;;3.83;;
79570;SDS011;69034;49.444;7.758;2023-05-15T18:35:46;6.95;;;3.28;;
79570;SDS011;69034;49.444;7.758;2023-05-15T18:39:47;6.07;;;3.17;;
79570;SDS011;69034;49.444;7.758;2023-05-15T18:43:48;8.02;;;3.35;;
79570;SDS011;69034;49.444;7.758;2023-05-15T18:47:49;5.68;;;3.22;;
79570;SDS011;69034;49.444;7.758;2023-05-15T18:51:53;9.05;;;5.53;;
79570;SDS011;69034;49.444;7.758;2023-05-15T18:55:54;6.90;;;3.30;;
79570;SDS011;69034;49.444;7.758;2023-05-15T18:59:55;4.53;;;2.38;;
79570;SDS011;69034;49.444;7.758;2023-05-15T19:03:55;5.40;;;3.17;;
79570;SDS011;69034;49.444;7.758;2023-05-15T19:07:56;5.97;;;3.55;;
79570;SDS011;69034;49.444;7.758;2023-05-15T19:12:00;7.00;;;3.72;;
79570;SDS011;69034;49.444;7.758;2023-05-15T19:16:01;8.40;;;4.60;;
79570;SDS011;69034;49.444;7.758;2023-05-15T19:20:03;6.20;;;3.58;;
79570;SDS011;69034;49.444;7.758;2023-05-15T19:24:05;8.48;;;4.15;;
79570;SDS011;69034;49.444;7.758;2023-05-15T19:28:06;8.00;;;4.97;;
79570;SDS011;69034;49.444;7.758;2023-05-15T19:32:07;9.13;;;3.58;;
79570;SDS011;69034;49.444;7.758;2023-05-15T19:36:08;5.25;;;2.97;;
79570;SDS011;69034;49.444;7.758;2023-05-15T19:40:08;5.75;;;2.78;;
79570;SDS011;69034;49.444;7.758;2023-05-15T19:44:09;5.32;;;2.92;;
79570;SDS011;69034;49.444;7.758;2023-05-15T19:48:10;5.07;;;3.00;;
79570;SDS011;69034;49.444;7.758;2023-05-15T19:52:11;5.78;;;2.90;;
79570;SDS011;69034;49.444;7.758;2023-05-15T19:56:12;5.47;;;3.38;;
79570;SDS011;69034;49.444;7.758;2023-05-15T20:00:14;8.38;;;5.32;;
79570;SDS011;69034;49.444;7.758;2023-05-15T20:04:15;7.57;;;4.60;;
79570;SDS011;69034;49.444;7.758;2023-05-15T20:08:16;12.75;;;2.97;;
79570;SDS011;69034;49.444;7.758;2023-05-15T20:12:17;9.75;;;4.90;;
79570;SDS011;69034;49.444;7.758;2023-05-15T20:16:17;6.78;;;4.03;;
79570;SDS011;69034;49.444;7.758;2023-05-15T20:20:18;7.28;;;4.80;;
79570;SDS011;69034;49.444;7.758;2023-05-15T20:24:21;6.43;;;4.10;;
79570;SDS011;69034;49.444;7.758;2023-05-15T20:28:24;8.27;;;4.35;;
79570;SDS011;69034;49.444;7.758;2023-05-15T20:32:28;5.35;;;3.53;;
79570;SDS011;69034;49.444;7.758;2023-05-15T20:36:29;5.60;;;3.50;;
79570;SDS011;69034;49.444;7.758;2023-05-15T20:40:31;7.10;;;4.30;;
79570;SDS011;69034;49.444;7.758;2023-05-15T20:44:32;7.20;;;3.25;;
79570;SDS011;69034;49.444;7.758;2023-05-15T20:48:35;9.98;;;4.60;;
79570;SDS011;69034;49.444;7.758;2023-05-15T20:52:37;5.43;;;3.75;;
79570;SDS011;69034;49.444;7.758;2023-05-15T20:56:38;6.78;;;3.45;;
79570;SDS011;69034;49.444;7.758;2023-05-15T21:00:38;7.18;;;3.47;;
79570;SDS011;69034;49.444;7.758;2023-05-15T21:04:40;6.28;;;3.30;;
79570;SDS011;69034;49.444;7.758;2023-05-15T21:08:40;6.35;;;3.88;;
79570;SDS011;69034;49.444;7.758;2023-05-15T21:12:41;8.55;;;4.22;;
79570;SDS011;69034;49.444;7.758;2023-05-15T21:16:45;5.25;;;3.13;;
79570;SDS011;69034;49.444;7.758;2023-05-15T21:20:46;7.57;;;4.47;;
79570;SDS011;69034;49.444;7.758;2023-05-15T21:24:50;6.72;;;3.90;;
79570;SDS011;69034;49.444;7.758;2023-05-15T21:28:51;5.80;;;3.90;;
79570;SDS011;69034;49.444;7.758;2023-05-15T21:32:52;8.85;;;4.88;;
79570;SDS011;69034;49.444;7.758;2023-05-15T21:36:52;8.77;;;4.03;;
79570;SDS011;69034;49.444;7.758;2023-05-15T21:40:53;9.38;;;3.97;;
79570;SDS011;69034;49.444;7.758;2023-05-15T21:44:55;6.85;;;3.40;;
79570;SDS011;69034;49.444;7.758;2023-05-15T21:48:56;6.80;;;4.00;;
79570;SDS011;69034;49.444;7.758;2023-05-15T21:52:58;8.43;;;4.55;;
79570;SDS011;69034;49.444;7.758;2023-05-15T21:56:59;6.38;;;3.58;;
79570;SDS011;69034;49.444;7.758;2023-05-15T22:01:00;9.38;;;4.70;;
79570;SDS011;69034;49.444;7.758;2023-05-15T22:05:02;6.43;;;3.67;;
79570;SDS011;69034;49.444;7.758;2023-05-15T22:09:07;8.07;;;4.93;;
79570;SDS011;69034;49.444;7.758;2023-05-15T22:13:08;10.27;;;4.40;;
79570;SDS011;69034;49.444;7.758;2023-05-15T22:17:08;6.15;;;3.80;;
79570;SDS011;69034;49.444;7.758;2023-05-15T22:21:09;11.35;;;6.20;;
79570;SDS011;69034;49.444;7.758;2023-05-15T22:25:11;7.25;;;3.72;;
79570;SDS011;69034;49.444;7.758;2023-05-15T22:29:12;13.80;;;7.03;;
79570;SDS011;69034;49.444;7.758;2023-05-15T22:33:13;14.32;;;7.00;;
79570;SDS011;69034;49.444;7.758;2023-05-15T22:37:14;7.90;;;4.75;;
79570;SDS011;69034;49.444;7.758;2023-05-15T22:41:15;11.32;;;5.00;;
79570;SDS011;69034;49.444;7.758;2023-05-15T22:45:16;12.45;;;5.88;;
79570;SDS011;69034;49.444;7.758;2023-05-15T22:49:17;11.38;;;6.18;;
79570;SDS011;69034;49.444;7.758;2023-05-15T22:53:24;11.52;;;5.85;;
79570;SDS011;69034;49.444;7.758;2023-05-15T22:57:26;13.13;;;6.57;;
79570;SDS011;69034;49.444;7.758;2023-05-15T23:01:27;6.47;;;3.97;;
79570;SDS011;69034;49.444;7.758;2023-05-15T23:05:30;7.05;;;3.65;;
79570;SDS011;69034;49.444;7.758;2023-05-15T23:09:31;12.00;;;5.63;;
79570;SDS011;69034;49.444;7.758;2023-05-15T23:13:31;11.05;;;5.25;;
79570;SDS011;69034;49.444;7.758;2023-05-15T23:17:32;19.80;;;9.85;;
79570;SDS011;69034;49.444;7.758;2023-05-15T23:21:33;16.70;;;9.45;;
79570;SDS011;69034;49.444;7.758;2023-05-15T23:25:34;8.45;;;4.40;;
79570;SDS011;69034;49.444;7.758;2023-05-15T23:29:35;12.10;;;7.45;;
79570;SDS011;69034;49.444;7.758;2023-05-15T23:33:36;11.40;;;6.05;;
79570;SDS011;69034;49.444;7.758;2023-05-15T23:37:37;13.45;;;6.75;;
79570;SDS011;69034;49.444;7.758;2023-05-15T23:41:38;11.50;;;5.60;;
79570;SDS011;69034;49.444;7.758;2023-05-15T23:45:39;8.18;;;4.32;;
79570;SDS011;69034;49.444;7.758;2023-05-15T23:49:40;10.73;;;6.07;;
79570;SDS011;69034;49.444;7.758;2023-05-15T23:53:42;11.57;;;6.05;;
79570;SDS011;69034;49.444;7.758;2023-05-15T23:57:43;8.27;;;4.65;;
